createdAt,value
2017-08-22T00:00:01.093Z,82.50
2017-08-22T00:02:28.520Z,82.70
2017-08-22T00:04:55.951Z,83.60
2017-08-22T00:07:23.384Z,84.30
2017-08-22T00:09:50.807Z,84.30
2017-08-22T00:12:18.243Z,84.50
2017-08-22T00:14:45.677Z,84.20
2017-08-22T00:17:13.118Z,84.10
2017-08-22T00:19:40.549Z,84.10
2017-08-22T00:22:07.976Z,83.80
2017-08-22T00:24:35.417Z,82.90
2017-08-22T00:27:02.845Z,82.40
2017-08-22T00:29:30.278Z,82.30
2017-08-22T00:31:57.708Z,82.20
2017-08-22T00:34:25.141Z,82.40
2017-08-22T00:36:52.588Z,82.30
2017-08-22T00:39:20.008Z,82.40
2017-08-22T00:41:48.389Z,82.20
2017-08-22T00:44:15.816Z,82.20
2017-08-22T00:46:43.247Z,82.20
2017-08-22T00:49:10.671Z,82.30
2017-08-22T00:51:38.127Z,82.40
2017-08-22T00:54:05.548Z,82.60
2017-08-22T00:56:32.984Z,83.20
2017-08-22T00:59:00.423Z,83.60
2017-08-22T01:01:27.852Z,83.80
2017-08-22T01:03:55.279Z,83.90
2017-08-22T01:06:22.726Z,83.70
2017-08-22T01:08:50.148Z,83.70
2017-08-22T01:11:17.586Z,83.70
2017-08-22T01:13:45.013Z,84.00
2017-08-22T01:16:12.482Z,83.70
2017-08-22T01:18:39.908Z,84.30
2017-08-22T01:21:07.340Z,84.50
2017-08-22T01:23:34.779Z,85.00
2017-08-22T01:26:02.213Z,84.80
2017-08-22T01:28:29.645Z,84.50
2017-08-22T01:30:57.080Z,84.40
2017-08-22T01:33:24.526Z,84.40
2017-08-22T01:35:51.949Z,84.50
2017-08-22T01:38:19.380Z,84.50
2017-08-22T01:40:46.816Z,84.40
2017-08-22T01:43:14.253Z,84.50
2017-08-22T01:45:41.697Z,85.10
2017-08-22T01:48:09.134Z,84.60
2017-08-22T01:50:36.570Z,85.20
2017-08-22T01:53:04.001Z,84.40
2017-08-22T01:55:31.429Z,84.80
2017-08-22T01:57:58.872Z,85.10
2017-08-22T02:00:26.388Z,85.00
2017-08-22T02:02:53.830Z,85.20
2017-08-22T02:05:21.279Z,85.50
2017-08-22T02:07:48.713Z,85.40
2017-08-22T02:10:16.149Z,85.00
2017-08-22T02:12:43.581Z,85.20
2017-08-22T02:15:11.014Z,85.00
2017-08-22T02:17:38.455Z,84.70
2017-08-22T02:20:06.970Z,84.70
2017-08-22T02:22:34.404Z,84.70
2017-08-22T02:25:01.841Z,84.70
2017-08-22T02:27:29.293Z,84.80
2017-08-22T02:29:56.716Z,85.10
2017-08-22T02:32:24.150Z,85.20
2017-08-22T02:34:51.581Z,85.30
2017-08-22T02:37:19.023Z,85.20
2017-08-22T02:39:46.482Z,85.40
2017-08-22T02:42:14.172Z,85.40
2017-08-22T02:44:41.614Z,85.40
2017-08-22T02:47:09.048Z,85.40
2017-08-22T02:49:36.507Z,85.40
2017-08-22T02:52:03.940Z,85.40
2017-08-22T02:54:31.390Z,85.30
2017-08-22T02:56:58.829Z,85.30
2017-08-22T02:59:26.266Z,85.20
2017-08-22T03:01:53.706Z,85.70
2017-08-22T03:04:21.165Z,85.70
2017-08-22T03:06:48.600Z,85.90
2017-08-22T03:09:16.043Z,86.00
2017-08-22T03:11:43.474Z,86.10
2017-08-22T03:14:10.914Z,86.00
2017-08-22T03:16:39.404Z,86.30
2017-08-22T03:19:06.849Z,85.70
2017-08-22T03:21:34.289Z,86.00
2017-08-22T03:24:01.732Z,85.70
2017-08-22T03:26:29.156Z,85.40
2017-08-22T03:28:56.598Z,85.30
2017-08-22T03:31:24.030Z,85.10
2017-08-22T03:33:51.478Z,85.00
2017-08-22T03:36:18.914Z,85.00
2017-08-22T03:38:46.354Z,85.40
2017-08-22T03:41:13.793Z,85.40
2017-08-22T03:43:41.225Z,85.40
2017-08-22T03:46:08.669Z,85.80
2017-08-22T03:48:36.105Z,86.20
2017-08-22T03:51:03.559Z,85.80
2017-08-22T03:53:30.989Z,85.80
2017-08-22T03:55:58.437Z,85.60
2017-08-22T03:58:26.069Z,85.40
2017-08-22T04:00:53.489Z,85.60
2017-08-22T04:03:20.937Z,85.40
2017-08-22T04:05:48.382Z,85.50
2017-08-22T04:08:15.820Z,85.50
2017-08-22T04:10:43.249Z,85.80
2017-08-22T04:13:10.677Z,85.60
2017-08-22T04:15:38.122Z,85.80
2017-08-22T04:18:05.552Z,86.00
2017-08-22T04:20:33.005Z,86.10
2017-08-22T04:23:00.465Z,86.10
2017-08-22T04:25:27.888Z,86.00
2017-08-22T04:27:55.325Z,86.10
2017-08-22T04:30:22.773Z,85.90
2017-08-22T04:32:50.211Z,85.60
2017-08-22T04:35:17.690Z,85.50
2017-08-22T04:37:45.109Z,85.50
2017-08-22T04:40:12.537Z,85.50
2017-08-22T04:42:39.993Z,85.40
2017-08-22T04:45:07.523Z,86.60
2017-08-22T04:47:35.080Z,85.50
2017-08-22T04:50:02.577Z,85.50
2017-08-22T04:52:31.068Z,85.30
2017-08-22T04:54:58.507Z,85.40
2017-08-22T04:57:25.953Z,85.40
2017-08-22T04:59:53.382Z,85.20
2017-08-22T05:02:20.833Z,85.50
2017-08-22T05:04:48.341Z,85.80
2017-08-22T05:07:15.784Z,86.30
2017-08-22T05:09:43.225Z,86.30
2017-08-22T05:12:17.982Z,86.30
2017-08-22T05:14:46.520Z,85.90
2017-08-22T05:17:13.963Z,85.50
2017-08-22T05:19:41.394Z,85.70
2017-08-22T05:22:08.849Z,86.20
2017-08-22T05:24:36.293Z,86.20
2017-08-22T05:27:03.734Z,85.60
2017-08-22T05:29:31.164Z,86.00
2017-08-22T05:31:58.603Z,85.30
2017-08-22T05:34:26.041Z,85.20
2017-08-22T05:36:53.500Z,85.30
2017-08-22T05:39:20.933Z,85.00
2017-08-22T05:41:48.380Z,85.30
2017-08-22T05:44:15.822Z,85.50
2017-08-22T05:46:43.253Z,85.50
2017-08-22T05:49:10.804Z,85.50
2017-08-22T05:51:38.301Z,85.40
2017-08-22T05:54:05.751Z,85.30
2017-08-22T05:56:33.181Z,84.80
2017-08-22T05:59:00.632Z,84.00
2017-08-22T06:01:34.360Z,84.40
2017-08-22T06:04:01.805Z,84.30
2017-08-22T06:06:29.232Z,84.80
2017-08-22T06:08:56.672Z,84.40
2017-08-22T06:11:24.109Z,84.60
2017-08-22T06:13:51.608Z,85.00
2017-08-22T06:16:19.036Z,84.00
2017-08-22T06:18:46.485Z,83.50
2017-08-22T06:21:13.924Z,83.70
2017-08-22T06:23:41.365Z,83.60
2017-08-22T06:26:08.804Z,83.30
2017-08-22T06:28:36.240Z,83.70
2017-08-22T06:31:03.672Z,82.90
2017-08-22T06:33:31.114Z,81.30
2017-08-22T06:35:58.550Z,81.90
2017-08-22T06:38:25.975Z,81.50
2017-08-22T06:40:53.417Z,81.50
2017-08-22T06:43:20.848Z,81.70
2017-08-22T06:45:48.294Z,81.20
2017-08-22T06:48:15.721Z,81.20
2017-08-22T06:50:43.158Z,80.20
2017-08-22T06:53:10.588Z,80.20
2017-08-22T06:55:39.066Z,79.70
2017-08-22T06:58:06.492Z,80.00
2017-08-22T07:00:33.930Z,78.90
2017-08-22T07:03:01.357Z,78.80
2017-08-22T07:05:28.789Z,77.90
2017-08-22T07:07:56.264Z,77.90
2017-08-22T07:10:23.696Z,76.90
2017-08-22T07:12:51.173Z,75.90
2017-08-22T07:15:18.643Z,75.60
2017-08-22T07:17:46.056Z,74.50
2017-08-22T07:20:13.492Z,73.80
2017-08-22T07:22:40.940Z,73.70
2017-08-22T07:25:08.360Z,73.00
2017-08-22T07:27:35.784Z,71.50
2017-08-22T07:30:03.220Z,72.00
2017-08-22T07:32:30.652Z,70.50
2017-08-22T07:34:58.102Z,69.70
2017-08-22T07:37:25.529Z,65.60
2017-08-22T07:39:52.972Z,65.80
2017-08-22T07:42:20.392Z,62.70
2017-08-22T07:44:47.824Z,62.70
2017-08-22T07:47:15.257Z,64.10
2017-08-22T07:49:42.700Z,61.80
2017-08-22T07:52:10.137Z,62.90
2017-08-22T07:54:37.576Z,60.50
2017-08-22T07:57:06.008Z,60.50
2017-08-22T07:59:33.433Z,60.00
2017-08-22T08:02:00.924Z,61.50
2017-08-22T08:04:28.365Z,59.80
2017-08-22T08:06:55.802Z,60.10
2017-08-22T08:09:23.243Z,59.40
2017-08-22T08:11:50.674Z,58.80
2017-08-22T08:14:18.097Z,58.80
2017-08-22T08:16:45.544Z,57.60
2017-08-22T08:19:12.969Z,58.90
2017-08-22T08:21:40.400Z,56.60
2017-08-22T08:24:07.920Z,59.20
2017-08-22T08:26:35.352Z,54.80
2017-08-22T08:29:02.791Z,55.50
2017-08-22T08:31:30.377Z,52.90
2017-08-22T08:33:57.804Z,53.50
2017-08-22T08:36:25.301Z,54.60
2017-08-22T08:38:52.728Z,54.40
2017-08-22T08:41:20.156Z,54.30
2017-08-22T08:43:47.585Z,53.70
2017-08-22T08:46:15.013Z,53.00
2017-08-22T08:48:42.457Z,55.30
2017-08-22T08:51:09.889Z,52.80
2017-08-22T08:53:37.318Z,52.90
2017-08-22T08:56:04.745Z,51.70
2017-08-22T08:58:32.183Z,54.30
2017-08-22T09:00:59.614Z,54.10
2017-08-22T09:03:27.042Z,52.10
2017-08-22T09:05:54.465Z,54.00
2017-08-22T09:08:21.904Z,54.80
2017-08-22T09:10:49.342Z,52.50
2017-08-22T09:13:16.780Z,52.70
2017-08-22T09:15:44.211Z,51.00
2017-08-22T09:18:11.642Z,50.40
2017-08-22T09:20:39.090Z,51.50
2017-08-22T09:23:06.513Z,50.20
2017-08-22T09:25:33.945Z,50.80
2017-08-22T09:28:01.378Z,49.60
2017-08-22T09:30:28.809Z,50.50
2017-08-22T09:32:56.245Z,48.60
2017-08-22T09:35:23.678Z,49.80
2017-08-22T09:37:51.109Z,47.70
2017-08-22T09:40:18.540Z,47.90
2017-08-22T09:42:45.973Z,46.70
2017-08-22T09:45:13.405Z,46.40
2017-08-22T09:47:40.846Z,46.40
2017-08-22T09:50:09.245Z,45.50
2017-08-22T09:52:36.681Z,45.50
2017-08-22T09:55:04.113Z,47.20
2017-08-22T09:57:31.604Z,45.20
2017-08-22T09:59:59.068Z,43.40
2017-08-22T10:02:26.517Z,43.20
2017-08-22T10:04:53.948Z,41.40
2017-08-22T10:07:21.381Z,41.00
2017-08-22T10:09:48.816Z,40.80
2017-08-22T10:12:16.243Z,40.40
2017-08-22T10:14:43.678Z,41.40
2017-08-22T10:17:11.109Z,41.60
2017-08-22T10:20:16.257Z,43.50
2017-08-22T10:22:43.700Z,42.00
2017-08-22T10:25:11.137Z,43.20
2017-08-22T10:27:38.569Z,41.40
2017-08-22T10:30:06.004Z,40.50
2017-08-22T10:32:33.432Z,39.70
2017-08-22T10:35:00.860Z,42.40
2017-08-22T10:37:28.291Z,39.60
2017-08-22T10:39:55.723Z,41.30
2017-08-22T10:42:23.158Z,37.80
2017-08-22T10:44:50.603Z,42.60
2017-08-22T10:47:18.024Z,39.60
2017-08-22T10:49:45.601Z,38.00
2017-08-22T10:52:13.038Z,38.90
2017-08-22T10:54:40.473Z,38.60
2017-08-22T10:57:07.908Z,39.90
2017-08-22T10:59:35.344Z,39.80
2017-08-22T11:02:02.776Z,43.90
2017-08-22T11:04:30.204Z,41.40
2017-08-22T11:06:57.646Z,39.00
2017-08-22T11:09:25.073Z,38.30
2017-08-22T11:11:52.506Z,37.50
2017-08-22T11:14:20.058Z,39.00
2017-08-22T11:16:47.485Z,39.10
2017-08-22T11:19:14.921Z,37.70
2017-08-22T11:21:42.357Z,37.80
2017-08-22T11:24:09.884Z,36.50
2017-08-22T11:26:37.322Z,40.90
2017-08-22T11:29:04.796Z,42.80
2017-08-22T11:31:32.225Z,37.70
2017-08-22T11:33:59.657Z,42.70
2017-08-22T11:36:27.170Z,45.70
2017-08-22T11:38:54.628Z,37.30
2017-08-22T11:41:22.071Z,43.70
2017-08-22T11:43:49.539Z,42.10
2017-08-22T11:46:16.983Z,45.50
2017-08-22T11:48:44.408Z,43.90
2017-08-22T11:51:11.841Z,42.30
2017-08-22T11:53:39.272Z,38.50
2017-08-22T11:56:06.691Z,39.70
2017-08-22T11:58:34.133Z,39.10
2017-08-22T12:01:01.592Z,38.50
2017-08-22T12:03:29.033Z,39.60
2017-08-22T12:05:56.452Z,42.00
2017-08-22T12:08:24.454Z,40.80
2017-08-22T12:10:51.880Z,40.50
2017-08-22T12:13:20.543Z,43.30
2017-08-22T12:15:47.968Z,44.70
2017-08-22T12:18:17.528Z,38.50
2017-08-22T12:20:44.957Z,40.90
2017-08-22T12:23:12.397Z,41.60
2017-08-22T12:25:39.834Z,42.90
2017-08-22T12:28:07.352Z,40.40
2017-08-22T12:30:34.780Z,39.90
2017-08-22T12:33:02.235Z,41.70
2017-08-22T12:35:29.668Z,40.00
2017-08-22T12:37:57.293Z,42.30
2017-08-22T12:40:24.708Z,45.00
2017-08-22T12:42:52.213Z,47.70
2017-08-22T12:45:19.784Z,47.60
2017-08-22T12:47:47.222Z,40.80
2017-08-22T12:50:14.649Z,39.50
2017-08-22T12:52:42.077Z,43.00
2017-08-22T12:55:14.614Z,46.40
2017-08-22T12:57:42.461Z,46.40
2017-08-22T13:00:09.896Z,45.90
2017-08-22T13:02:37.373Z,47.50
2017-08-22T13:05:04.812Z,44.70
2017-08-22T13:07:32.253Z,41.20
2017-08-22T13:09:59.700Z,39.90
2017-08-22T13:12:27.128Z,43.10
2017-08-22T13:14:55.331Z,42.80
2017-08-22T13:17:22.839Z,42.80
2017-08-22T13:19:50.273Z,42.80
2017-08-22T13:22:17.701Z,43.50
2017-08-22T13:24:45.135Z,48.20
2017-08-22T13:27:16.432Z,48.10
2017-08-22T13:29:43.881Z,41.60
2017-08-22T13:32:11.375Z,41.90
2017-08-22T13:34:38.807Z,43.10
2017-08-22T13:37:06.233Z,45.70
2017-08-22T13:39:35.695Z,43.60
2017-08-22T13:42:03.160Z,45.90
2017-08-22T13:44:30.576Z,43.20
2017-08-22T13:46:58.007Z,43.50
2017-08-22T13:49:25.437Z,42.80
2017-08-22T13:51:52.877Z,44.30
2017-08-22T13:54:20.310Z,43.20
2017-08-22T13:56:47.756Z,43.10
2017-08-22T13:59:15.190Z,43.20
2017-08-22T14:01:42.625Z,42.90
2017-08-22T14:04:10.050Z,44.00
2017-08-22T14:06:37.486Z,43.70
2017-08-22T14:09:04.971Z,44.00
2017-08-22T14:11:32.401Z,42.70
2017-08-22T14:13:59.885Z,42.70
2017-08-22T14:16:27.338Z,43.20
2017-08-22T14:18:54.778Z,43.10
2017-08-22T14:21:22.213Z,43.00
2017-08-22T14:23:49.654Z,41.30
2017-08-22T14:26:18.092Z,44.90
2017-08-22T14:28:45.520Z,43.20
2017-08-22T14:31:12.962Z,41.50
2017-08-22T14:33:41.378Z,42.60
2017-08-22T14:36:08.805Z,42.00
2017-08-22T14:38:36.239Z,44.70
2017-08-22T14:41:03.681Z,42.30
2017-08-22T14:43:31.159Z,42.40
2017-08-22T14:46:02.468Z,42.30
2017-08-22T14:48:29.908Z,42.70
2017-08-22T14:50:57.360Z,42.80
2017-08-22T14:53:31.244Z,42.90
2017-08-22T14:55:58.684Z,47.40
2017-08-22T14:58:26.112Z,50.30
2017-08-22T15:00:53.544Z,47.30
2017-08-22T15:03:20.985Z,44.80
2017-08-22T15:05:48.494Z,43.00
2017-08-22T15:08:15.926Z,42.50
2017-08-22T15:10:43.353Z,43.90
2017-08-22T15:13:10.838Z,43.00
2017-08-22T15:15:38.445Z,47.30
2017-08-22T15:18:05.869Z,44.30
2017-08-22T15:20:33.304Z,45.00
2017-08-22T15:23:00.793Z,44.10
2017-08-22T15:25:28.217Z,46.40
2017-08-22T15:27:55.686Z,46.60
2017-08-22T15:30:23.137Z,44.90
2017-08-22T15:32:50.572Z,45.10
2017-08-22T15:35:18.048Z,48.60
2017-08-22T15:37:45.521Z,44.90
2017-08-22T15:40:12.948Z,47.30
2017-08-22T15:42:40.392Z,45.00
2017-08-22T15:45:07.826Z,44.00
2017-08-22T15:47:35.264Z,44.70
2017-08-22T15:50:02.689Z,44.90
2017-08-22T15:52:30.134Z,46.10
2017-08-22T15:54:57.564Z,46.10
2017-08-22T15:57:24.992Z,46.20
2017-08-22T15:59:52.428Z,45.70
2017-08-22T16:02:19.904Z,44.70
2017-08-22T16:04:47.336Z,46.90
2017-08-22T16:07:14.785Z,45.50
2017-08-22T16:09:42.226Z,45.20
2017-08-22T16:12:09.661Z,47.90
2017-08-22T16:14:37.097Z,46.10
2017-08-22T16:17:04.525Z,48.30
2017-08-22T16:19:33.051Z,45.60
2017-08-22T16:22:00.489Z,45.60
2017-08-22T16:24:27.916Z,45.40
2017-08-22T16:26:55.352Z,46.60
2017-08-22T16:29:22.788Z,48.40
2017-08-22T16:31:50.230Z,49.90
2017-08-22T16:34:17.665Z,51.20
2017-08-22T16:36:45.100Z,47.70
2017-08-22T16:39:12.528Z,46.50
2017-08-22T16:41:39.961Z,47.80
2017-08-22T16:44:07.448Z,52.20
2017-08-22T16:46:34.877Z,53.80
2017-08-22T16:49:02.309Z,53.70
2017-08-22T16:51:29.800Z,53.70
2017-08-22T16:53:57.228Z,53.80
2017-08-22T16:56:24.653Z,55.20
2017-08-22T16:58:52.102Z,52.40
2017-08-22T17:01:19.545Z,52.20
2017-08-22T17:03:46.984Z,49.70
2017-08-22T17:06:14.423Z,51.20
2017-08-22T17:08:41.852Z,49.50
2017-08-22T17:11:09.289Z,49.70
2017-08-22T17:13:36.745Z,50.60
2017-08-22T17:16:04.179Z,50.00
2017-08-22T17:18:31.609Z,50.50
2017-08-22T17:20:59.057Z,52.00
2017-08-22T17:23:26.481Z,52.00
2017-08-22T17:25:53.918Z,52.20
2017-08-22T17:28:21.393Z,52.00
2017-08-22T17:30:48.861Z,52.80
2017-08-22T17:33:16.273Z,52.80
2017-08-22T17:35:43.710Z,53.40
2017-08-22T17:38:11.176Z,53.70
2017-08-22T17:40:38.604Z,56.00
2017-08-22T17:43:06.039Z,55.20
2017-08-22T17:45:33.478Z,55.80
2017-08-22T17:48:00.910Z,55.30
2017-08-22T17:50:28.355Z,54.90
2017-08-22T17:52:55.787Z,54.40
2017-08-22T17:55:23.224Z,54.50
2017-08-22T17:57:50.654Z,55.10
2017-08-22T18:00:18.117Z,55.40
2017-08-22T18:02:45.600Z,55.30
2017-08-22T18:05:13.029Z,55.80
2017-08-22T18:07:40.480Z,55.20
2017-08-22T18:10:07.916Z,55.00
2017-08-22T18:12:35.387Z,55.10
2017-08-22T18:15:02.827Z,55.40
2017-08-22T18:17:30.254Z,56.40
2017-08-22T18:19:57.676Z,56.10
2017-08-22T18:22:25.132Z,56.50
2017-08-22T18:24:52.560Z,55.90
2017-08-22T18:27:19.996Z,56.40
2017-08-22T18:29:47.421Z,55.90
2017-08-22T18:32:15.790Z,56.60
2017-08-22T18:34:43.217Z,57.00
2017-08-22T18:37:10.653Z,58.10
2017-08-22T18:39:38.085Z,59.30
2017-08-22T18:42:05.522Z,61.20
2017-08-22T18:44:32.961Z,62.00
2017-08-22T18:47:00.402Z,63.20
2017-08-22T18:49:27.841Z,62.70
2017-08-22T18:51:55.284Z,62.70
2017-08-22T18:54:22.722Z,59.90
2017-08-22T18:56:50.169Z,60.70
2017-08-22T18:59:17.596Z,61.80
2017-08-22T19:01:45.988Z,62.30
2017-08-22T19:04:14.229Z,62.70
2017-08-22T19:06:41.691Z,62.00
2017-08-22T19:09:09.133Z,62.40
2017-08-22T19:11:36.575Z,62.90
2017-08-22T19:14:04.041Z,63.60
2017-08-22T19:16:31.523Z,64.50
2017-08-22T19:18:59.122Z,64.60
2017-08-22T19:21:26.581Z,65.50
2017-08-22T19:23:54.030Z,65.20
2017-08-22T19:26:21.476Z,65.90
2017-08-22T19:28:49.865Z,65.90
2017-08-22T19:31:17.333Z,65.70
2017-08-22T19:33:44.762Z,65.60
2017-08-22T19:36:12.192Z,65.10
2017-08-22T19:38:39.637Z,64.00
2017-08-22T19:41:07.083Z,63.80
2017-08-22T19:43:34.512Z,64.00
2017-08-22T19:46:01.944Z,64.00
2017-08-22T19:48:29.604Z,64.30
2017-08-22T19:50:57.048Z,64.00
2017-08-22T19:53:24.496Z,65.60
2017-08-22T19:55:51.940Z,65.60
2017-08-22T19:58:23.080Z,65.90
2017-08-22T20:00:50.586Z,66.20
2017-08-22T20:03:18.016Z,66.00
2017-08-22T20:05:45.449Z,65.40
2017-08-22T20:08:12.894Z,66.30
2017-08-22T20:10:40.327Z,66.70
2017-08-22T20:13:07.753Z,67.70
2017-08-22T20:15:35.180Z,66.00
2017-08-22T20:18:02.617Z,66.30
2017-08-22T20:20:30.070Z,66.60
2017-08-22T20:22:57.492Z,67.90
2017-08-22T20:25:24.937Z,67.90
2017-08-22T20:27:52.378Z,69.40
2017-08-22T20:30:19.824Z,69.70
2017-08-22T20:32:47.245Z,70.70
2017-08-22T20:35:14.788Z,70.50
2017-08-22T20:37:42.222Z,70.80
2017-08-22T20:40:09.661Z,73.40
2017-08-22T20:42:37.092Z,75.30
2017-08-22T20:45:04.530Z,76.20
2017-08-22T20:47:31.956Z,76.10
2017-08-22T20:49:59.438Z,75.00
2017-08-22T20:52:26.873Z,74.00
2017-08-22T20:54:54.308Z,74.70
2017-08-22T20:57:21.744Z,75.00
2017-08-22T20:59:49.209Z,75.00
2017-08-22T21:02:16.640Z,74.30
2017-08-22T21:04:44.068Z,74.60
2017-08-22T21:07:11.534Z,74.60
2017-08-22T21:09:38.956Z,75.50
2017-08-22T21:12:06.392Z,75.00
2017-08-22T21:14:33.829Z,75.80
2017-08-22T21:17:01.263Z,76.00
2017-08-22T21:19:31.488Z,76.40
2017-08-22T21:21:58.939Z,76.30
2017-08-22T21:24:26.378Z,75.70
2017-08-22T21:26:53.808Z,75.30
2017-08-22T21:29:21.241Z,75.20
2017-08-22T21:31:48.675Z,75.50
2017-08-22T21:34:16.106Z,75.80
2017-08-22T21:36:43.541Z,76.90
2017-08-22T21:39:10.968Z,77.70
2017-08-22T21:41:38.430Z,78.50
2017-08-22T21:44:05.856Z,78.50
2017-08-22T21:46:33.298Z,79.50
2017-08-22T21:49:00.712Z,80.00
2017-08-22T21:51:28.156Z,80.30
2017-08-22T21:53:55.587Z,80.90
2017-08-22T21:56:23.020Z,80.10
2017-08-22T21:58:50.458Z,79.90
2017-08-22T22:01:17.904Z,79.80
2017-08-22T22:03:45.334Z,80.80
2017-08-22T22:06:12.768Z,80.60
2017-08-22T22:08:40.199Z,79.60
2017-08-22T22:11:07.636Z,79.10
2017-08-22T22:13:35.069Z,81.10
2017-08-22T22:16:02.504Z,81.30
2017-08-22T22:18:30.624Z,81.80
2017-08-22T22:20:58.057Z,82.00
2017-08-22T22:23:25.496Z,81.90
2017-08-22T22:25:52.925Z,81.70
2017-08-22T22:28:20.369Z,82.00
2017-08-22T22:30:47.798Z,82.20
2017-08-22T22:33:15.238Z,82.20
2017-08-22T22:35:42.670Z,82.70
2017-08-22T22:38:10.106Z,83.10
2017-08-22T22:40:37.538Z,82.90
2017-08-22T22:43:04.977Z,83.00
2017-08-22T22:45:32.404Z,82.70
2017-08-22T22:47:59.833Z,82.70
2017-08-22T22:50:27.260Z,82.40
2017-08-22T22:52:54.701Z,82.90
2017-08-22T22:55:22.126Z,83.20
2017-08-22T22:57:49.580Z,83.80
2017-08-22T23:00:17.009Z,83.70
2017-08-22T23:02:47.658Z,82.40
2017-08-22T23:05:15.093Z,82.70
2017-08-22T23:07:42.533Z,81.60
2017-08-22T23:10:09.962Z,82.50
2017-08-22T23:12:37.393Z,82.70
2017-08-22T23:15:04.824Z,81.20
2017-08-22T23:17:32.298Z,80.80
2017-08-22T23:19:59.728Z,80.70
2017-08-22T23:22:27.168Z,80.50
2017-08-22T23:24:54.594Z,80.60
2017-08-22T23:27:22.025Z,80.10
2017-08-22T23:29:50.221Z,80.40
2017-08-22T23:32:17.660Z,80.30
2017-08-22T23:34:45.092Z,80.10
2017-08-22T23:37:12.521Z,81.20
2017-08-22T23:39:39.967Z,80.50
2017-08-22T23:42:07.397Z,81.10
2017-08-22T23:44:34.834Z,80.30
2017-08-22T23:47:02.265Z,80.30
2017-08-22T23:49:29.708Z,80.50
2017-08-22T23:51:57.138Z,80.00
2017-08-22T23:54:24.568Z,80.30
2017-08-22T23:56:51.998Z,81.00
2017-08-22T23:59:19.432Z,81.10
